Time;durP1;ratioP1;P1;durP2;ratioP2;P2;SDS_P1;SDS_P2;PMS_P1;PMS_P2;Temp;Humidity;BMP_temperature;BMP_pressure;BME280_temperature;BME280_humidity;BME280_pressure;Samples;Min_cycle;Max_cycle;Signal;HPM_P1;HPM_P2
2023/04/03 00:01:05;;;;;;;1.90;1.42;;;16.90;56.60;;;;;;5051945;28;20288;-63
2023/04/03 00:03:31;;;;;;;2.03;1.60;;;16.90;56.60;;;;;;5051485;28;20242;-64
2023/04/03 00:05:56;;;;;;;2.30;1.40;;;16.80;56.50;;;;;;5051986;28;20181;-63
2023/04/03 00:08:22;;;;;;;1.20;1.10;;;16.90;56.60;;;;;;5052222;28;20191;-62
2023/04/03 00:10:47;;;;;;;1.60;1.50;;;16.80;56.50;;;;;;5051326;28;20645;-63
2023/04/03 00:13:13;;;;;;;1.80;1.65;;;16.80;56.50;;;;;;5051768;28;20175;-63
2023/04/03 00:15:39;;;;;;;1.90;1.50;;;16.80;56.50;;;;;;5051759;28;20183;-63
2023/04/03 00:18:05;;;;;;;2.05;1.30;;;16.80;56.50;;;;;;5051123;28;20703;-62
2023/04/03 00:20:30;;;;;;;1.42;1.33;;;16.80;56.50;;;;;;5052031;28;20254;-62
2023/04/03 00:22:56;;;;;;;1.70;1.60;;;16.80;56.50;;;;;;5051386;28;20223;-62
2023/04/03 00:25:21;;;;;;;1.60;1.40;;;16.80;56.50;;;;;;5051218;28;20171;-63
2023/04/03 00:27:47;;;;;;;1.63;1.50;;;16.80;56.50;;;;;;5051888;28;20262;-63
2023/04/03 00:30:16;;;;;;;1.58;1.30;;;16.70;56.50;;;;;;5051915;28;20197;-64
2023/04/03 00:32:42;;;;;;;1.58;1.48;;;16.70;56.50;;;;;;5050802;28;20183;-64
2023/04/03 00:35:08;;;;;;;2.92;1.58;;;16.70;56.50;;;;;;5051741;28;20190;-63
2023/04/03 00:37:33;;;;;;;1.52;1.42;;;16.70;56.50;;;;;;5053726;28;20183;-63
2023/04/03 00:39:59;;;;;;;1.27;1.17;;;16.70;56.50;;;;;;5054785;28;20175;-63
2023/04/03 00:42:25;;;;;;;1.30;1.20;;;16.70;56.50;;;;;;5055815;28;20192;-63
2023/04/03 00:44:56;;;;;;;1.85;1.50;;;16.70;56.50;;;;;;5055409;28;20544;-63
2023/04/03 00:47:22;;;;;;;1.35;1.25;;;16.70;56.50;;;;;;5055196;28;20171;-63
2023/04/03 00:49:47;;;;;;;1.25;1.17;;;16.70;56.50;;;;;;5037564;28;20240;-63
2023/04/03 00:52:15;;;;;;;1.55;1.30;;;16.70;56.50;;;;;;5054533;28;20171;-63
2023/04/03 00:54:41;;;;;;;1.30;1.20;;;16.70;56.50;;;;;;5053842;28;20286;-63
2023/04/03 00:57:06;;;;;;;2.50;1.45;;;16.60;56.40;;;;;;5054111;28;20608;-63
2023/04/03 00:59:40;;;;;;;1.67;1.27;;;16.60;56.40;;;;;;5053554;28;20175;-64
2023/04/03 01:02:05;;;;;;;1.63;1.52;;;16.60;56.40;;;;;;5037656;28;20651;-64
2023/04/03 01:04:33;;;;;;;1.33;1.23;;;16.60;56.40;;;;;;5055424;28;20262;-63
2023/04/03 01:07:01;;;;;;;1.90;1.30;;;16.60;56.40;;;;;;5054334;28;20638;-63
2023/04/03 01:09:27;;;;;;;1.88;1.30;;;16.60;56.40;;;;;;5054056;28;20578;-62
2023/04/03 01:11:53;;;;;;;1.88;1.42;;;16.60;56.40;;;;;;5053647;28;20657;-62
2023/04/03 01:14:18;;;;;;;1.27;1.17;;;16.60;56.40;;;;;;5054934;28;20201;-61
2023/04/03 01:16:52;;;;;;;1.45;1.17;;;16.60;56.40;;;;;;5055225;28;20182;-62
2023/04/03 01:19:18;;;;;;;1.55;1.25;;;16.60;56.40;;;;;;5053954;28;20645;-62
2023/04/03 01:21:53;;;;;;;1.40;1.30;;;16.50;56.30;;;;;;5052768;28;20272;-62
2023/04/03 01:24:35;;;;;;;1.50;1.35;;;16.50;56.30;;;;;;5053825;28;20170;-62
2023/04/03 01:27:00;;;;;;;1.38;1.27;;;16.50;56.30;;;;;;5054877;28;20634;-63
2023/04/03 01:29:26;;;;;;;1.65;1.20;;;16.50;56.40;;;;;;5053270;28;20186;-63
2023/04/03 01:31:54;;;;;;;1.33;1.23;;;16.50;56.30;;;;;;5054830;28;20171;-64
2023/04/03 01:34:19;;;;;;;1.58;1.48;;;16.50;56.40;;;;;;5054896;28;20175;-63
2023/04/03 01:36:45;;;;;;;3.28;1.58;;;16.50;56.30;;;;;;5053901;28;20244;-64
2023/04/03 01:39:11;;;;;;;1.17;1.08;;;16.50;56.30;;;;;;5054809;28;20218;-62
2023/04/03 01:41:36;;;;;;;1.38;1.27;;;16.50;56.30;;;;;;5054936;28;20202;-62
2023/04/03 01:44:02;;;;;;;1.98;1.20;;;16.50;56.30;;;;;;5053694;28;20175;-62
2023/04/03 01:46:27;;;;;;;1.67;1.40;;;16.40;56.20;;;;;;5054709;28;20236;-62
2023/04/03 01:48:53;;;;;;;1.20;1.10;;;16.50;56.30;;;;;;5052728;28;20183;-63
2023/04/03 01:51:19;;;;;;;1.25;1.15;;;16.40;56.20;;;;;;5054798;28;20186;-62
2023/04/03 01:53:44;;;;;;;1.85;1.33;;;16.40;56.20;;;;;;5055141;28;20346;-62
2023/04/03 01:56:10;;;;;;;1.27;1.17;;;16.40;56.20;;;;;;5054744;28;20260;-62
2023/04/03 01:58:35;;;;;;;1.15;1.08;;;16.40;56.20;;;;;;5055182;28;20216;-63
2023/04/03 02:01:01;;;;;;;1.27;1.15;;;16.40;56.20;;;;;;5054617;28;20206;-63
2023/04/03 02:03:26;;;;;;;1.20;1.10;;;16.40;56.20;;;;;;5054421;28;20182;-63
2023/04/03 02:05:52;;;;;;;1.30;1.10;;;16.40;56.20;;;;;;5054615;28;20171;-63
2023/04/03 02:08:18;;;;;;;1.40;1.23;;;16.40;56.20;;;;;;5054901;28;20183;-62
2023/04/03 02:10:44;;;;;;;1.20;1.10;;;16.40;56.20;;;;;;5053995;28;20183;-63
2023/04/03 02:13:10;;;;;;;1.70;1.42;;;16.30;56.10;;;;;;5054885;28;20171;-63
2023/04/03 02:15:38;;;;;;;1.13;1.00;;;16.30;56.10;;;;;;5054849;28;20186;-63
2023/04/03 02:18:04;;;;;;;1.30;1.15;;;16.30;56.20;;;;;;5053786;28;20175;-62
2023/04/03 02:20:29;;;;;;;1.30;1.20;;;16.30;56.20;;;;;;5054548;28;20252;-62
2023/04/03 02:22:55;;;;;;;1.30;1.17;;;16.30;56.10;;;;;;5054186;28;20226;-62
2023/04/03 02:25:21;;;;;;;1.17;1.08;;;16.30;56.10;;;;;;5053770;28;20633;-63
2023/04/03 02:27:46;;;;;;;1.20;1.10;;;16.30;56.10;;;;;;5053358;28;20175;-63
2023/04/03 02:30:12;;;;;;;2.83;1.08;;;16.30;56.10;;;;;;5054580;28;20622;-63
2023/04/03 02:32:38;;;;;;;1.50;1.10;;;16.30;56.20;;;;;;5054011;28;20183;-64
2023/04/03 02:35:04;;;;;;;1.27;1.13;;;16.30;56.10;;;;;;5054129;28;20206;-64
2023/04/03 02:37:29;;;;;;;1.75;1.33;;;16.30;56.10;;;;;;5054354;28;20183;-63
2023/04/03 02:39:55;;;;;;;1.08;1.00;;;16.20;56.10;;;;;;5053265;28;20167;-62
2023/04/03 02:42:20;;;;;;;1.13;0.90;;;16.20;56.10;;;;;;5054292;28;20222;-63
2023/04/03 02:44:46;;;;;;;1.33;1.20;;;16.20;56.10;;;;;;5053959;28;20630;-63
2023/04/03 02:47:12;;;;;;;1.58;1.10;;;16.20;56.10;;;;;;5053569;28;20175;-64
2023/04/03 02:49:37;;;;;;;1.70;1.40;;;16.20;56.10;;;;;;5054120;28;20281;-63
2023/04/03 02:52:03;;;;;;;1.48;1.25;;;16.20;56.10;;;;;;5053411;28;20203;-63
2023/04/03 02:54:30;;;;;;;1.30;1.20;;;16.20;56.10;;;;;;5054095;28;20210;-63
2023/04/03 02:56:56;;;;;;;1.15;1.05;;;16.20;56.10;;;;;;5053868;28;20183;-66
2023/04/03 02:59:21;;;;;;;1.10;0.98;;;16.20;56.10;;;;;;5053714;28;20319;-63
2023/04/03 03:01:47;;;;;;;2.13;1.20;;;16.20;56.10;;;;;;5053465;28;20245;-64
2023/04/03 03:04:12;;;;;;;1.23;0.95;;;16.10;56.10;;;;;;5053703;28;20172;-63
2023/04/03 03:06:38;;;;;;;1.33;1.10;;;16.20;56.10;;;;;;5052675;28;20179;-63
2023/04/03 03:09:04;;;;;;;1.92;1.15;;;16.10;56.10;;;;;;5053604;28;20179;-63
2023/04/03 03:11:30;;;;;;;0.98;0.98;;;16.10;56.10;;;;;;5053820;28;20179;-62
2023/04/03 03:13:55;;;;;;;1.45;1.00;;;16.20;56.10;;;;;;5052715;28;20254;-63
2023/04/03 03:16:21;;;;;;;2.20;1.23;;;16.10;56.10;;;;;;5053750;28;20175;-62
2023/04/03 03:18:46;;;;;;;1.35;1.10;;;16.10;56.10;;;;;;5053250;28;20185;-62
2023/04/03 03:21:12;;;;;;;1.88;1.00;;;16.10;56.00;;;;;;5052545;28;20231;-63
2023/04/03 03:23:37;;;;;;;1.23;1.13;;;16.10;56.10;;;;;;5053496;28;20589;-62
2023/04/03 03:26:05;;;;;;;1.40;1.30;;;16.10;56.00;;;;;;5053302;28;20171;-63
2023/04/03 03:28:30;;;;;;;2.13;1.05;;;16.10;56.10;;;;;;5052515;28;20207;-63
2023/04/03 03:30:56;;;;;;;1.35;1.25;;;16.10;56.00;;;;;;5053201;28;20198;-64
2023/04/03 03:33:22;;;;;;;1.27;1.08;;;16.10;56.10;;;;;;5053395;28;20179;-64
2023/04/03 03:35:48;;;;;;;1.23;1.00;;;16.00;56.00;;;;;;5052216;28;20193;-62
2023/04/03 03:38:13;;;;;;;0.98;0.95;;;16.00;56.00;;;;;;5053168;28;20194;-62
2023/04/03 03:40:39;;;;;;;1.15;1.00;;;16.00;56.00;;;;;;5053124;28;20244;-62
2023/04/03 03:43:04;;;;;;;1.38;1.15;;;16.00;56.00;;;;;;5051996;28;20175;-63
2023/04/03 03:45:31;;;;;;;1.55;1.40;;;16.00;56.00;;;;;;5053195;28;20212;-63
2023/04/03 03:47:56;;;;;;;1.90;1.23;;;16.00;56.00;;;;;;5052858;28;20175;-63
2023/04/03 03:50:22;;;;;;;1.23;1.00;;;16.00;56.00;;;;;;5052383;28;20643;-63
2023/04/03 03:52:47;;;;;;;1.20;0.90;;;16.00;56.00;;;;;;5052759;28;20533;-63
2023/04/03 03:55:13;;;;;;;1.92;1.10;;;16.00;56.00;;;;;;5052988;28;20579;-63
2023/04/03 03:57:38;;;;;;;1.80;0.95;;;16.00;56.00;;;;;;5052205;28;20201;-63
2023/04/03 04:00:04;;;;;;;1.27;1.02;;;16.00;56.00;;;;;;5052454;28;20171;-63
2023/04/03 04:02:30;;;;;;;1.15;1.00;;;16.00;56.00;;;;;;5051993;28;20206;-64
2023/04/03 04:04:55;;;;;;;1.50;1.00;;;16.00;56.00;;;;;;5052589;28;20171;-63
2023/04/03 04:07:21;;;;;;;1.38;1.00;;;15.90;56.00;;;;;;5052627;28;20202;-62
2023/04/03 04:09:46;;;;;;;1.23;1.10;;;15.90;56.00;;;;;;5051993;28;20182;-62
2023/04/03 04:12:12;;;;;;;1.08;0.90;;;15.90;56.00;;;;;;5052171;28;20182;-62
2023/04/03 04:14:37;;;;;;;1.20;1.10;;;15.90;55.90;;;;;;5052780;28;20187;-63
2023/04/03 04:17:03;;;;;;;1.20;1.10;;;15.90;56.00;;;;;;5051675;28;20183;-62
2023/04/03 04:19:29;;;;;;;1.55;1.00;;;15.90;56.00;;;;;;5052489;28;20179;-62
2023/04/03 04:21:54;;;;;;;1.27;1.02;;;15.90;55.90;;;;;;5052141;28;20234;-62
2023/04/03 04:24:20;;;;;;;1.13;1.10;;;15.90;56.00;;;;;;5052104;28;20175;-63
2023/04/03 04:26:45;;;;;;;1.48;1.00;;;15.90;56.00;;;;;;5052172;28;20251;-63
2023/04/03 04:29:11;;;;;;;1.05;0.90;;;15.90;56.00;;;;;;5052615;28;20176;-63
2023/04/03 04:31:36;;;;;;;1.35;1.15;;;15.90;55.90;;;;;;5051807;28;20205;-64
2023/04/03 04:34:02;;;;;;;1.10;1.00;;;15.80;55.90;;;;;;5052222;28;20171;-63
2023/04/03 04:36:27;;;;;;;1.73;1.02;;;15.90;56.00;;;;;;5052531;28;20179;-63
2023/04/03 04:38:53;;;;;;;1.10;0.95;;;15.80;55.90;;;;;;5051441;28;20524;-62
2023/04/03 04:41:22;;;;;;;1.10;1.00;;;15.80;55.90;;;;;;5052316;28;20217;-62
2023/04/03 04:43:48;;;;;;;1.50;1.02;;;15.80;55.90;;;;;;5052280;28;20175;-63
2023/04/03 04:46:14;;;;;;;1.15;1.02;;;15.80;55.90;;;;;;5051679;28;20186;-62
2023/04/03 04:48:40;;;;;;;1.30;1.15;;;15.80;55.90;;;;;;5052127;28;20182;-63
2023/04/03 04:51:05;;;;;;;0.85;0.85;;;15.80;55.90;;;;;;5052203;28;20538;-63
2023/04/03 04:53:31;;;;;;;1.20;1.10;;;15.80;55.90;;;;;;5051506;28;20175;-63
2023/04/03 04:55:57;;;;;;;1.30;0.90;;;15.70;55.90;;;;;;5051985;28;20179;-63
2023/04/03 04:58:22;;;;;;;1.30;1.02;;;15.80;55.90;;;;;;5052286;28;20254;-63
2023/04/03 05:00:48;;;;;;;1.60;1.02;;;15.70;55.90;;;;;;5051128;28;20214;-63
2023/04/03 05:03:13;;;;;;;1.75;0.90;;;15.70;55.90;;;;;;5052199;28;20274;-63
2023/04/03 05:05:39;;;;;;;1.38;1.02;;;15.70;55.90;;;;;;5051574;28;20262;-63
2023/04/03 05:08:05;;;;;;;1.00;1.00;;;15.70;55.90;;;;;;5051805;28;20267;-62
2023/04/03 05:10:31;;;;;;;0.80;0.80;;;15.70;55.90;;;;;;5052155;28;20175;-62
2023/04/03 05:12:56;;;;;;;1.55;1.20;;;15.70;55.90;;;;;;5051016;28;20178;-61
2023/04/03 05:15:22;;;;;;;1.45;1.00;;;15.70;55.90;;;;;;5052041;28;20183;-62
2023/04/03 05:17:47;;;;;;;1.10;1.00;;;15.70;55.80;;;;;;5051766;28;20179;-61
2023/04/03 05:20:13;;;;;;;1.15;0.98;;;15.70;55.90;;;;;;5051161;28;20171;-61
2023/04/03 05:22:39;;;;;;;1.02;1.00;;;15.70;55.80;;;;;;5052185;28;20229;-62
2023/04/03 05:25:05;;;;;;;1.17;1.08;;;15.60;55.80;;;;;;5055530;28;20179;-62
2023/04/03 05:27:30;;;;;;;1.27;1.00;;;15.60;55.80;;;;;;5055042;28;20179;-62
2023/04/03 05:29:59;;;;;;;1.20;0.82;;;15.60;55.80;;;;;;5055360;28;20286;-63
2023/04/03 05:32:27;;;;;;;1.08;0.90;;;15.60;55.80;;;;;;5055930;28;20177;-65
2023/04/03 05:34:52;;;;;;;1.58;1.10;;;15.60;55.80;;;;;;5054563;28;20175;-63
2023/04/03 05:37:18;;;;;;;0.95;0.85;;;15.60;55.80;;;;;;5055585;28;20186;-63
2023/04/03 05:39:43;;;;;;;1.08;0.98;;;15.70;55.80;;;;;;5055172;28;20268;-64
2023/04/03 05:42:11;;;;;;;0.95;0.90;;;15.70;55.80;;;;;;5054915;28;20206;-63
2023/04/03 05:44:36;;;;;;;1.85;1.20;;;15.60;55.80;;;;;;5055451;28;20225;-64
2023/04/03 05:47:02;;;;;;;0.90;0.90;;;15.60;55.80;;;;;;5055170;28;20183;-64
2023/04/03 05:49:28;;;;;;;1.45;1.17;;;15.60;55.70;;;;;;5054920;28;20205;-63
2023/04/03 05:51:53;;;;;;;1.15;0.80;;;15.70;55.80;;;;;;5055257;28;20217;-64
2023/04/03 05:54:22;;;;;;;1.25;1.15;;;15.60;55.70;;;;;;5055395;28;20175;-63
2023/04/03 05:56:49;;;;;;;1.58;0.88;;;15.60;55.70;;;;;;5054142;28;20372;-64
2023/04/03 05:59:15;;;;;;;1.95;1.00;;;15.70;55.80;;;;;;5055273;28;20180;-64
2023/04/03 06:01:40;;;;;;;1.00;0.93;;;15.60;55.80;;;;;;5055062;28;20223;-64
2023/04/03 06:04:08;;;;;;;1.00;0.90;;;15.60;55.70;;;;;;5054349;28;20254;-64
2023/04/03 06:06:51;;;;;;;1.25;0.90;;;15.70;55.80;;;;;;5055229;28;20179;-63
2023/04/03 06:09:17;;;;;;;1.67;1.10;;;15.70;55.70;;;;;;5054183;28;20775;-63
2023/04/03 06:11:43;;;;;;;1.65;1.15;;;15.80;55.60;;;;;;5054604;28;20258;-63
2023/04/03 06:14:08;;;;;;;1.65;0.90;;;15.90;55.50;;;;;;5054694;28;20680;-63
2023/04/03 06:16:34;;;;;;;1.58;0.90;;;16.00;55.30;;;;;;5054408;28;20179;-66
2023/04/03 06:19:00;;;;;;;1.20;0.77;;;16.10;55.30;;;;;;5054372;28;20182;-64
2023/04/03 06:21:26;;;;;;;0.90;0.90;;;16.20;55.10;;;;;;5054718;28;20295;-62
2023/04/03 06:23:51;;;;;;;1.13;1.00;;;16.30;55.00;;;;;;5053824;28;20628;-62
2023/04/03 06:26:17;;;;;;;1.98;0.82;;;16.40;54.80;;;;;;5054771;28;20186;-63
2023/04/03 06:28:42;;;;;;;0.90;0.90;;;16.60;54.60;;;;;;5054452;28;20266;-64
2023/04/03 06:31:08;;;;;;;1.60;0.90;;;16.70;54.30;;;;;;5054108;28;20317;-65
2023/04/03 06:33:34;;;;;;;1.55;1.17;;;16.80;54.10;;;;;;5054437;28;20212;-64
2023/04/03 06:35:59;;;;;;;1.23;0.80;;;16.90;54.00;;;;;;5053757;28;20174;-64
2023/04/03 06:38:25;;;;;;;1.13;0.98;;;17.00;53.90;;;;;;5053890;28;20178;-63
2023/04/03 06:40:51;;;;;;;2.28;1.00;;;17.10;53.90;;;;;;5054129;28;20303;-63
2023/04/03 06:43:17;;;;;;;1.08;0.90;;;17.20;53.90;;;;;;5054585;28;20183;-64
2023/04/03 06:45:42;;;;;;;1.00;0.90;;;17.20;53.80;;;;;;5053580;28;20524;-64
2023/04/03 06:48:08;;;;;;;1.23;1.00;;;17.30;53.90;;;;;;5054334;28;20175;-62
2023/04/03 06:50:34;;;;;;;1.40;1.00;;;17.30;53.80;;;;;;5054087;28;20638;-63
2023/04/03 06:53:00;;;;;;;3.95;0.93;;;17.30;53.90;;;;;;5053246;28;20189;-62
2023/04/03 06:55:26;;;;;;;3.45;0.85;;;17.30;54.10;;;;;;5054056;28;20171;-63
2023/04/03 06:57:52;;;;;;;1.30;1.20;;;17.30;54.10;;;;;;5053759;28;20198;-63
2023/04/03 07:00:18;;;;;;;3.15;1.40;;;17.30;54.30;;;;;;5053416;28;20207;-63
2023/04/03 07:02:43;;;;;;;4.65;1.30;;;17.20;54.40;;;;;;5053935;28;20607;-63
2023/04/03 07:05:09;;;;;;;3.05;1.02;;;17.20;54.50;;;;;;5053918;28;20630;-63
2023/04/03 07:07:35;;;;;;;4.43;1.17;;;17.10;54.70;;;;;;5053459;28;20265;-62
2023/04/03 07:10:01;;;;;;;2.85;1.20;;;17.10;54.80;;;;;;5053647;28;20224;-62
2023/04/03 07:12:26;;;;;;;3.05;1.00;;;17.00;55.00;;;;;;5053019;28;20175;-62
2023/04/03 07:14:52;;;;;;;3.05;1.27;;;17.00;55.10;;;;;;5053475;28;20171;-62
2023/04/03 07:17:17;;;;;;;2.90;0.93;;;17.00;55.10;;;;;;5054044;28;20179;-62
2023/04/03 07:19:43;;;;;;;1.85;0.95;;;16.90;55.20;;;;;;5052894;28;20177;-62
2023/04/03 07:22:08;;;;;;;1.48;1.00;;;16.90;55.30;;;;;;5053537;28;20249;-61
2023/04/03 07:24:34;;;;;;;1.85;1.30;;;16.90;55.40;;;;;;5053667;28;20198;-62
2023/04/03 07:27:00;;;;;;;1.73;1.17;;;16.90;55.40;;;;;;5052734;28;20668;-62
2023/04/03 07:29:25;;;;;;;3.00;1.05;;;16.80;55.50;;;;;;5053766;28;20182;-63
2023/04/03 07:31:51;;;;;;;1.20;1.02;;;16.80;55.50;;;;;;5053432;28;20182;-64
2023/04/03 07:34:16;;;;;;;2.40;1.20;;;16.80;55.60;;;;;;5052782;28;20705;-62
2023/04/03 07:36:42;;;;;;;2.05;0.95;;;16.80;55.60;;;;;;5053131;28;20254;-63
2023/04/03 07:39:07;;;;;;;1.92;1.13;;;16.80;55.70;;;;;;5053480;28;20262;-62
2023/04/03 07:41:33;;;;;;;2.42;1.08;;;16.80;55.80;;;;;;5052571;28;20299;-62
2023/04/03 07:43:59;;;;;;;2.22;1.05;;;16.70;55.80;;;;;;5053178;28;20197;-63
2023/04/03 07:46:24;;;;;;;1.55;0.98;;;16.70;55.80;;;;;;5052467;28;20266;-63
2023/04/03 07:48:50;;;;;;;3.70;0.98;;;16.70;55.80;;;;;;5052033;28;20231;-63
2023/04/03 07:51:16;;;;;;;2.63;1.10;;;16.70;55.80;;;;;;5053377;28;20173;-62
2023/04/03 07:53:41;;;;;;;2.58;1.38;;;16.80;55.90;;;;;;5053338;28;20214;-63
2023/04/03 07:56:07;;;;;;;3.55;1.15;;;16.80;55.90;;;;;;5052314;28;20591;-63
2023/04/03 07:58:32;;;;;;;1.35;0.98;;;16.90;55.90;;;;;;5053271;28;20521;-64
2023/04/03 08:00:58;;;;;;;1.48;0.95;;;16.90;55.80;;;;;;5052665;28;20692;-63
2023/04/03 08:03:24;;;;;;;1.33;0.80;;;16.90;55.80;;;;;;5052372;28;20183;-63
2023/04/03 08:05:50;;;;;;;2.88;1.30;;;16.90;55.70;;;;;;5052684;28;20614;-62
2023/04/03 08:08:17;;;;;;;2.05;1.00;;;16.90;55.80;;;;;;5052916;28;20617;-61
2023/04/03 08:10:42;;;;;;;1.05;0.90;;;16.90;55.80;;;;;;5051735;28;20585;-62
2023/04/03 08:13:08;;;;;;;0.70;0.70;;;16.90;55.80;;;;;;5052813;28;20179;-62
2023/04/03 08:15:34;;;;;;;1.33;1.00;;;16.90;55.90;;;;;;5052188;28;20175;-62
2023/04/03 08:18:00;;;;;;;2.67;1.00;;;16.90;55.90;;;;;;5052415;28;20171;-62
2023/04/03 08:20:26;;;;;;;1.80;0.93;;;17.00;56.00;;;;;;5052778;28;20175;-62
2023/04/03 08:22:52;;;;;;;1.10;1.00;;;16.90;55.90;;;;;;5051571;28;20783;-62
2023/04/03 08:25:17;;;;;;;1.55;1.08;;;17.00;56.00;;;;;;5052632;28;20248;-62
2023/04/03 08:27:43;;;;;;;1.77;1.20;;;16.90;56.00;;;;;;5052295;28;20210;-63
2023/04/03 08:30:09;;;;;;;1.60;1.02;;;17.00;56.10;;;;;;5052089;28;20183;-63
2023/04/03 08:32:35;;;;;;;1.00;0.90;;;17.00;56.10;;;;;;5052699;28;20178;-64
2023/04/03 08:35:01;;;;;;;1.35;0.80;;;17.00;56.00;;;;;;5052513;28;21010;-63
2023/04/03 08:37:27;;;;;;;1.20;0.80;;;17.00;56.70;;;;;;5051821;28;20175;-62
2023/04/03 08:39:53;;;;;;;0.80;0.70;;;17.00;56.10;;;;;;5052187;28;20175;-62
2023/04/03 08:42:36;;;;;;;1.58;1.10;;;17.00;56.20;;;;;;5052630;28;20229;-63
2023/04/03 08:45:08;;;;;;;1.17;1.05;;;17.00;56.10;;;;;;5050407;28;20179;-62
2023/04/03 08:47:49;;;;;;;1.52;1.00;;;17.00;56.10;;;;;;5051275;28;20652;-63
2023/04/03 08:50:19;;;;;;;1.95;1.23;;;17.00;56.10;;;;;;5052433;28;20179;-62
2023/04/03 08:52:52;;;;;;;1.17;0.90;;;17.00;56.10;;;;;;5050312;28;20178;-63
2023/04/03 08:55:31;;;;;;;2.38;1.00;;;17.00;56.10;;;;;;5051447;28;20183;-63
2023/04/03 08:58:10;;;;;;;1.20;0.93;;;17.00;56.00;;;;;;5050670;28;20221;-63
2023/04/03 09:00:44;;;;;;;1.88;1.10;;;17.10;56.10;;;;;;5056348;28;20171;-62
2023/04/03 09:03:12;;;;;;;0.70;0.70;;;17.10;56.10;;;;;;5055099;28;20216;-62
2023/04/03 09:05:38;;;;;;;1.38;1.15;;;17.10;56.10;;;;;;5054491;28;20270;-63
2023/04/03 09:08:27;;;;;;;1.38;1.13;;;17.10;56.10;;;;;;5056159;28;20175;-62
2023/04/03 09:11:17;;;;;;;2.88;0.90;;;17.10;56.00;;;;;;5055971;28;20175;-62
2023/04/03 09:13:45;;;;;;;0.80;0.60;;;17.10;56.10;;;;;;5033571;28;20657;-62
2023/04/03 09:16:28;;;;;;;1.50;1.20;;;17.10;56.10;;;;;;5055087;28;20264;-62
2023/04/03 09:18:58;;;;;;;1.10;1.00;;;17.10;56.10;;;;;;5053859;28;20593;-62
2023/04/03 09:21:31;;;;;;;2.55;0.90;;;17.20;56.20;;;;;;5055671;28;20238;-61
2023/04/03 09:23:58;;;;;;;2.00;1.00;;;17.20;56.20;;;;;;5039006;28;20172;-61
2023/04/03 09:26:59;;;;;;;0.65;0.60;;;17.20;56.10;;;;;;5037414;28;20171;-62
2023/04/03 09:29:25;;;;;;;1.73;0.90;;;17.20;56.10;;;;;;5041886;28;20188;-62
2023/04/03 09:32:02;;;;;;;1.17;0.77;;;17.20;56.20;;;;;;5054410;28;20186;-63
2023/04/03 09:34:31;;;;;;;1.27;0.80;;;17.20;56.10;;;;;;5055064;28;20660;-63
2023/04/03 09:37:05;;;;;;;1.10;0.60;;;17.20;56.00;;;;;;5055413;28;20638;-62
2023/04/03 09:39:32;;;;;;;1.35;0.80;;;17.30;56.00;;;;;;5054402;28;20171;-61
2023/04/03 09:42:03;;;;;;;0.93;0.80;;;17.30;56.10;;;;;;5053523;28;20219;-62
2023/04/03 09:44:33;;;;;;;2.53;1.00;;;17.30;56.10;;;;;;5055524;28;20171;-62
2023/04/03 09:46:58;;;;;;;0.80;0.77;;;17.30;56.10;;;;;;5054808;28;20190;-63
2023/04/03 09:49:24;;;;;;;0.95;0.80;;;17.30;56.10;;;;;;5054428;28;20175;-62
2023/04/03 09:51:50;;;;;;;1.33;0.98;;;17.30;56.10;;;;;;5055224;28;20185;-62
2023/04/03 09:54:40;;;;;;;1.17;0.80;;;17.30;56.00;;;;;;5054866;28;20630;-62
2023/04/03 09:57:14;;;;;;;1.15;0.90;;;17.30;55.20;;;;;;5055050;28;20183;-63
2023/04/03 10:00:01;;;;;;;1.23;0.95;;;17.30;51.60;;;;;;5054217;28;20176;-63
2023/04/03 10:02:37;;;;;;;2.13;1.13;;;17.20;49.30;;;;;;5054762;28;20218;-63
2023/04/03 10:05:05;;;;;;;0.88;0.70;;;17.20;49.00;;;;;;5053900;28;20201;-62
2023/04/03 10:07:35;;;;;;;0.82;0.82;;;17.20;48.70;;;;;;5053232;28;20202;-64
2023/04/03 10:10:17;;;;;;;0.75;0.50;;;17.20;48.30;;;;;;5051060;28;20170;-62
2023/04/03 10:12:42;;;;;;;1.90;0.80;;;17.20;48.70;;;;;;5052318;28;20171;-64
2023/04/03 10:15:14;;;;;;;1.80;0.68;;;17.30;49.30;;;;;;5053099;28;20254;-64
2023/04/03 10:17:53;;;;;;;2.00;0.80;;;17.40;49.60;;;;;;5051368;28;20179;-64
2023/04/03 10:20:55;;;;;;;0.70;0.70;;;17.40;49.90;;;;;;5052833;28;20224;-64
2023/04/03 10:23:22;;;;;;;0.82;0.68;;;17.40;50.30;;;;;;5029209;28;20203;-64
2023/04/03 10:25:51;;;;;;;2.47;0.60;;;17.40;50.50;;;;;;5033106;28;20540;-61
2023/04/03 10:28:25;;;;;;;1.65;0.80;;;17.50;50.70;;;;;;5034761;28;20197;-61
2023/04/03 10:31:06;;;;;;;0.85;0.57;;;17.50;50.90;;;;;;5032739;28;20179;-62
2023/04/03 10:33:50;;;;;;;1.70;0.90;;;17.50;51.20;;;;;;5034755;28;20172;-63
2023/04/03 10:36:38;;;;;;;4.82;1.05;;;17.50;51.60;;;;;;5032970;28;20175;-62
2023/04/03 10:39:36;;;;;;;2.53;0.63;;;17.60;51.90;;;;;;5033215;28;20180;-61
2023/04/03 10:42:15;;;;;;;3.58;1.17;;;17.60;51.90;;;;;;5046579;28;20235;-62
2023/04/03 10:45:05;;;;;;;1.52;0.50;;;17.70;52.00;;;;;;5032596;28;20302;-63
2023/04/03 10:47:39;;;;;;;0.82;0.70;;;17.70;52.00;;;;;;5034414;28;20182;-63
2023/04/03 10:50:13;;;;;;;1.67;0.70;;;17.70;52.10;;;;;;5034153;28;20167;-62
2023/04/03 10:53:04;;;;;;;3.50;0.60;;;17.70;52.20;;;;;;5032861;28;20172;-63
2023/04/03 10:55:36;;;;;;;3.40;0.68;;;17.80;52.20;;;;;;5033386;28;20237;-63
2023/04/03 10:58:02;;;;;;;3.40;0.70;;;17.80;52.20;;;;;;5032164;28;20179;-63
2023/04/03 11:00:31;;;;;;;2.42;0.98;;;17.80;52.30;;;;;;5033112;28;20175;-65
2023/04/03 11:02:58;;;;;;;1.65;0.63;;;17.80;52.60;;;;;;5033786;28;20187;-64
2023/04/03 11:05:41;;;;;;;1.10;0.70;;;17.80;52.80;;;;;;5032305;28;20685;-64
2023/04/03 11:08:35;;;;;;;8.07;0.90;;;17.80;52.90;;;;;;5034132;28;20187;-62
2023/04/03 11:11:08;;;;;;;3.78;0.88;;;17.80;53.20;;;;;;5033830;28;20178;-62
2023/04/03 11:13:42;;;;;;;4.75;1.00;;;17.80;53.20;;;;;;5032075;28;20187;-62
2023/04/03 11:16:08;;;;;;;0.90;0.57;;;17.80;53.20;;;;;;5032742;28;20178;-62
2023/04/03 11:18:59;;;;;;;3.25;0.77;;;17.80;53.30;;;;;;5033026;28;20168;-63
2023/04/03 11:21:32;;;;;;;2.92;0.73;;;17.80;53.20;;;;;;5032318;28;20227;-62
2023/04/03 11:24:00;;;;;;;0.93;0.60;;;17.80;53.20;;;;;;5033259;28;20270;-62
2023/04/03 11:26:32;;;;;;;0.60;0.60;;;17.80;53.80;;;;;;5031915;28;20171;-63
2023/04/03 11:29:12;;;;;;;1.52;0.60;;;17.80;53.20;;;;;;5032308;28;20267;-64
2023/04/03 11:31:44;;;;;;;1.52;0.68;;;17.80;53.40;;;;;;5033693;28;20172;-64
2023/04/03 11:34:36;;;;;;;0.88;0.60;;;17.80;53.40;;;;;;5033153;28;20213;-64
2023/04/03 11:37:01;;;;;;;2.70;0.70;;;17.80;53.50;;;;;;5032064;28;20587;-62
2023/04/03 11:39:30;;;;;;;2.20;0.63;;;17.80;53.50;;;;;;5032118;28;20279;-63
2023/04/03 11:41:56;;;;;;;0.80;0.45;;;17.90;53.60;;;;;;5031933;28;20264;-63
2023/04/03 11:44:36;;;;;;;2.95;0.70;;;17.80;53.60;;;;;;5032350;28;20259;-64
2023/04/03 11:47:02;;;;;;;1.55;0.93;;;17.90;53.50;;;;;;5032380;28;20186;-64
2023/04/03 11:49:50;;;;;;;2.58;0.77;;;17.90;53.60;;;;;;5033558;28;20187;-63
2023/04/03 11:52:42;;;;;;;1.38;0.90;;;17.90;53.60;;;;;;5033379;28;20221;-62
2023/04/03 11:55:23;;;;;;;2.10;0.60;;;17.90;53.60;;;;;;5032512;28;20179;-63
2023/04/03 11:57:57;;;;;;;0.63;0.60;;;17.90;53.30;;;;;;5032785;28;20175;-63
2023/04/03 12:00:51;;;;;;;1.80;0.60;;;17.90;53.40;;;;;;5033177;28;20171;-64
2023/04/03 12:03:26;;;;;;;1.17;0.82;;;17.90;53.30;;;;;;5033327;28;20184;-64
2023/04/03 12:06:06;;;;;;;0.63;0.60;;;17.90;53.20;;;;;;5032728;28;20179;-64
2023/04/03 12:08:41;;;;;;;2.05;0.77;;;17.90;53.00;;;;;;5032381;28;20202;-64
2023/04/03 12:11:13;;;;;;;1.15;0.70;;;18.00;52.50;;;;;;5033217;28;20377;-63
2023/04/03 12:13:48;;;;;;;1.52;0.70;;;18.00;51.40;;;;;;5033124;28;20634;-63
2023/04/03 12:16:21;;;;;;;1.13;0.60;;;18.00;50.40;;;;;;5041425;28;20171;-63
2023/04/03 12:18:53;;;;;;;1.63;0.80;;;18.00;49.70;;;;;;5035168;28;20190;-63
2023/04/03 12:21:28;;;;;;;0.47;0.47;;;18.10;50.00;;;;;;5052453;28;20222;-63
2023/04/03 12:24:08;;;;;;;0.75;0.50;;;18.00;50.10;;;;;;5051871;28;20175;-63
2023/04/03 12:26:51;;;;;;;1.05;0.57;;;18.10;50.40;;;;;;5052587;28;20185;-63
2023/04/03 12:29:34;;;;;;;1.38;0.80;;;18.10;50.60;;;;;;5051983;28;20661;-64
2023/04/03 12:32:24;;;;;;;0.70;0.60;;;18.20;50.70;;;;;;5052376;28;20209;-64
2023/04/03 12:35:08;;;;;;;0.57;0.52;;;18.10;50.80;;;;;;5052288;28;20245;-65
2023/04/03 12:37:40;;;;;;;1.60;0.82;;;18.10;50.90;;;;;;5035928;28;20642;-63
2023/04/03 12:40:20;;;;;;;1.13;0.70;;;18.10;50.90;;;;;;5051217;28;20261;-63
2023/04/03 12:42:55;;;;;;;1.23;0.73;;;18.10;50.90;;;;;;5052206;28;20297;-64
2023/04/03 12:45:24;;;;;;;2.35;0.77;;;18.10;50.80;;;;;;5052512;28;20284;-64
2023/04/03 12:47:50;;;;;;;1.52;0.70;;;18.20;50.70;;;;;;5052153;28;20552;-64
2023/04/03 12:50:21;;;;;;;1.38;0.70;;;18.20;50.60;;;;;;5050442;28;20713;-64
2023/04/03 12:52:50;;;;;;;0.88;0.73;;;18.20;50.50;;;;;;5052147;28;20183;-64
2023/04/03 12:55:20;;;;;;;2.58;1.10;;;18.20;50.40;;;;;;5040790;28;20182;-63
2023/04/03 12:57:45;;;;;;;2.08;0.60;;;18.30;50.40;;;;;;5061466;28;20233;-64